sensor_id;sensor_type;location;lat;lon;timestamp;temperature;humidity
12700;DHT22;6414;49.570;6.060;2023-02-28T00:01:17;-0.70;99.90
12700;DHT22;6414;49.570;6.060;2023-02-28T00:04:03;-0.70;99.90
12700;DHT22;6414;49.570;6.060;2023-02-28T00:06:49;-0.70;99.90
12700;DHT22;6414;49.570;6.060;2023-02-28T00:09:34;-0.70;99.90
12700;DHT22;6414;49.570;6.060;2023-02-28T00:12:20;-0.60;99.90
12700;DHT22;6414;49.570;6.060;2023-02-28T00:15:09;-0.70;99.90
12700;DHT22;6414;49.570;6.060;2023-02-28T00:17:54;-0.80;99.90
12700;DHT22;6414;49.570;6.060;2023-02-28T00:20:39;-0.70;99.90
12700;DHT22;6414;49.570;6.060;2023-02-28T00:23:25;-0.90;1.00
12700;DHT22;6414;49.570;6.060;2023-02-28T00:26:12;-1.00;1.00
12700;DHT22;6414;49.570;6.060;2023-02-28T00:28:57;-1.00;1.00
12700;DHT22;6414;49.570;6.060;2023-02-28T00:31:43;-1.10;1.00
12700;DHT22;6414;49.570;6.060;2023-02-28T00:34:29;-1.10;1.00
12700;DHT22;6414;49.570;6.060;2023-02-28T00:37:15;-1.10;1.00
12700;DHT22;6414;49.570;6.060;2023-02-28T00:40:01;-1.00;1.00
12700;DHT22;6414;49.570;6.060;2023-02-28T00:42:46;-1.00;1.00
12700;DHT22;6414;49.570;6.060;2023-02-28T00:45:32;-1.10;1.00
12700;DHT22;6414;49.570;6.060;2023-02-28T00:48:16;-1.10;1.00
12700;DHT22;6414;49.570;6.060;2023-02-28T00:51:03;-1.20;1.00
12700;DHT22;6414;49.570;6.060;2023-02-28T00:53:49;-1.20;1.00
12700;DHT22;6414;49.570;6.060;2023-02-28T00:56:34;-1.20;1.00
12700;DHT22;6414;49.570;6.060;2023-02-28T00:59:20;-1.10;1.00
12700;DHT22;6414;49.570;6.060;2023-02-28T01:02:06;-1.30;45.40
12700;DHT22;6414;49.570;6.060;2023-02-28T01:04:52;-1.30;99.90
12700;DHT22;6414;49.570;6.060;2023-02-28T01:07:38;-1.40;99.90
12700;DHT22;6414;49.570;6.060;2023-02-28T01:10:25;-1.40;99.90
12700;DHT22;6414;49.570;6.060;2023-02-28T01:13:11;-1.40;99.90
12700;DHT22;6414;49.570;6.060;2023-02-28T01:15:56;-1.30;99.90
12700;DHT22;6414;49.570;6.060;2023-02-28T01:18:42;-1.20;99.90
12700;DHT22;6414;49.570;6.060;2023-02-28T01:21:27;-1.30;1.00
12700;DHT22;6414;49.570;6.060;2023-02-28T01:24:13;-1.30;1.00
12700;DHT22;6414;49.570;6.060;2023-02-28T01:26:58;-1.30;1.00
12700;DHT22;6414;49.570;6.060;2023-02-28T01:29:44;-1.40;1.00
12700;DHT22;6414;49.570;6.060;2023-02-28T01:32:29;-1.30;1.00
12700;DHT22;6414;49.570;6.060;2023-02-28T01:35:15;-1.30;1.00
12700;DHT22;6414;49.570;6.060;2023-02-28T01:38:01;-1.30;1.00
12700;DHT22;6414;49.570;6.060;2023-02-28T01:40:46;-1.30;30.00
12700;DHT22;6414;49.570;6.060;2023-02-28T01:43:35;-1.30;1.00
12700;DHT22;6414;49.570;6.060;2023-02-28T01:46:17;-1.20;18.60
12700;DHT22;6414;49.570;6.060;2023-02-28T01:49:09;-1.10;1.00
12700;DHT22;6414;49.570;6.060;2023-02-28T01:51:53;-1.10;1.00
12700;DHT22;6414;49.570;6.060;2023-02-28T01:54:37;-1.10;1.00
12700;DHT22;6414;49.570;6.060;2023-02-28T01:57:24;-1.10;1.00
12700;DHT22;6414;49.570;6.060;2023-02-28T02:00:09;-1.10;1.00
12700;DHT22;6414;49.570;6.060;2023-02-28T02:02:55;-1.20;63.80
12700;DHT22;6414;49.570;6.060;2023-02-28T02:05:40;-1.20;56.70
12700;DHT22;6414;49.570;6.060;2023-02-28T02:08:25;-1.20;99.90
12700;DHT22;6414;49.570;6.060;2023-02-28T02:11:10;-1.20;99.90
12700;DHT22;6414;49.570;6.060;2023-02-28T02:17:15;-1.30;99.90
12700;DHT22;6414;49.570;6.060;2023-02-28T02:23:08;-1.50;1.00
12700;DHT22;6414;49.570;6.060;2023-02-28T02:26:12;-1.50;99.90
12700;DHT22;6414;49.570;6.060;2023-02-28T02:32:09;-1.60;1.00
12700;DHT22;6414;49.570;6.060;2023-02-28T02:34:55;-1.50;45.70
12700;DHT22;6414;49.570;6.060;2023-02-28T02:37:58;-1.50;99.90
12700;DHT22;6414;49.570;6.060;2023-02-28T02:40:58;-1.50;99.90
12700;DHT22;6414;49.570;6.060;2023-02-28T02:43:41;-1.60;99.90
12700;DHT22;6414;49.570;6.060;2023-02-28T02:46:36;-1.60;1.00
12700;DHT22;6414;49.570;6.060;2023-02-28T02:49:25;-1.60;1.00
12700;DHT22;6414;49.570;6.060;2023-02-28T02:52:06;-1.60;1.00
12700;DHT22;6414;49.570;6.060;2023-02-28T02:54:51;-1.50;1.00
12700;DHT22;6414;49.570;6.060;2023-02-28T02:57:58;-1.60;1.00
12700;DHT22;6414;49.570;6.060;2023-02-28T03:00:23;-1.80;1.00
12700;DHT22;6414;49.570;6.060;2023-02-28T03:03:06;-1.90;99.90
12700;DHT22;6414;49.570;6.060;2023-02-28T03:05:51;-1.90;99.90
12700;DHT22;6414;49.570;6.060;2023-02-28T03:08:37;-1.80;99.90
12700;DHT22;6414;49.570;6.060;2023-02-28T03:11:22;-1.90;99.90
12700;DHT22;6414;49.570;6.060;2023-02-28T03:14:25;-1.90;99.90
12700;DHT22;6414;49.570;6.060;2023-02-28T03:17:30;-1.80;1.00
12700;DHT22;6414;49.570;6.060;2023-02-28T03:23:15;-1.80;1.00
12700;DHT22;6414;49.570;6.060;2023-02-28T03:26:06;-1.80;1.00
12700;DHT22;6414;49.570;6.060;2023-02-28T03:29:02;-1.70;1.00
12700;DHT22;6414;49.570;6.060;2023-02-28T03:31:48;-1.80;1.00
12700;DHT22;6414;49.570;6.060;2023-02-28T03:34:36;-1.80;1.00
12700;DHT22;6414;49.570;6.060;2023-02-28T03:37:19;-1.80;1.00
12700;DHT22;6414;49.570;6.060;2023-02-28T03:40:07;-1.80;1.00
12700;DHT22;6414;49.570;6.060;2023-02-28T03:42:54;-1.90;1.00
12700;DHT22;6414;49.570;6.060;2023-02-28T03:45:38;-1.80;1.00
12700;DHT22;6414;49.570;6.060;2023-02-28T03:48:28;-1.90;1.00
12700;DHT22;6414;49.570;6.060;2023-02-28T03:51:09;-2.00;1.00
12700;DHT22;6414;49.570;6.060;2023-02-28T03:53:54;-2.00;1.00
12700;DHT22;6414;49.570;6.060;2023-02-28T03:56:40;-2.00;1.00
12700;DHT22;6414;49.570;6.060;2023-02-28T03:59:34;-2.10;1.00
12700;DHT22;6414;49.570;6.060;2023-02-28T04:02:17;-2.10;1.00
12700;DHT22;6414;49.570;6.060;2023-02-28T04:05:02;-2.10;1.00
12700;DHT22;6414;49.570;6.060;2023-02-28T04:07:48;-2.20;1.00
12700;DHT22;6414;49.570;6.060;2023-02-28T04:10:33;-2.20;1.00
12700;DHT22;6414;49.570;6.060;2023-02-28T04:13:18;-2.20;1.00
12700;DHT22;6414;49.570;6.060;2023-02-28T04:16:06;-2.20;1.00
12700;DHT22;6414;49.570;6.060;2023-02-28T04:18:49;-2.20;27.80
12700;DHT22;6414;49.570;6.060;2023-02-28T04:21:39;-2.30;63.60
12700;DHT22;6414;49.570;6.060;2023-02-28T04:24:24;-2.30;99.90
12700;DHT22;6414;49.570;6.060;2023-02-28T04:27:08;-2.30;99.90
12700;DHT22;6414;49.570;6.060;2023-02-28T04:29:53;-2.30;99.90
12700;DHT22;6414;49.570;6.060;2023-02-28T04:32:39;-2.30;99.90
12700;DHT22;6414;49.570;6.060;2023-02-28T04:35:24;-2.30;99.90
12700;DHT22;6414;49.570;6.060;2023-02-28T04:38:09;-2.30;99.90
12700;DHT22;6414;49.570;6.060;2023-02-28T04:40:56;-2.30;99.90
12700;DHT22;6414;49.570;6.060;2023-02-28T04:43:39;-2.40;99.90
12700;DHT22;6414;49.570;6.060;2023-02-28T04:46:24;-2.40;99.90
12700;DHT22;6414;49.570;6.060;2023-02-28T04:49:10;-2.40;99.90
12700;DHT22;6414;49.570;6.060;2023-02-28T04:51:55;-2.40;99.90
12700;DHT22;6414;49.570;6.060;2023-02-28T04:54:40;-2.40;99.90
12700;DHT22;6414;49.570;6.060;2023-02-28T04:57:25;-2.40;99.90
12700;DHT22;6414;49.570;6.060;2023-02-28T05:00:11;-2.40;99.90
12700;DHT22;6414;49.570;6.060;2023-02-28T05:02:56;-2.40;99.90
12700;DHT22;6414;49.570;6.060;2023-02-28T05:05:42;-2.40;99.90
12700;DHT22;6414;49.570;6.060;2023-02-28T05:08:27;-2.50;99.90
12700;DHT22;6414;49.570;6.060;2023-02-28T05:11:22;-2.30;99.90
12700;DHT22;6414;49.570;6.060;2023-02-28T05:14:04;-2.30;99.90
12700;DHT22;6414;49.570;6.060;2023-02-28T05:16:49;-2.20;99.90
12700;DHT22;6414;49.570;6.060;2023-02-28T05:19:35;-2.20;99.90
12700;DHT22;6414;49.570;6.060;2023-02-28T05:22:21;-2.30;99.90
12700;DHT22;6414;49.570;6.060;2023-02-28T05:25:09;-2.40;99.90
12700;DHT22;6414;49.570;6.060;2023-02-28T05:27:53;-2.40;99.90
12700;DHT22;6414;49.570;6.060;2023-02-28T05:30:39;-2.30;99.90
12700;DHT22;6414;49.570;6.060;2023-02-28T05:33:25;-2.30;99.90
12700;DHT22;6414;49.570;6.060;2023-02-28T05:36:11;-2.30;99.90
12700;DHT22;6414;49.570;6.060;2023-02-28T05:38:56;-2.30;99.90
12700;DHT22;6414;49.570;6.060;2023-02-28T05:41:42;-2.30;99.90
12700;DHT22;6414;49.570;6.060;2023-02-28T05:44:27;-2.50;99.90
12700;DHT22;6414;49.570;6.060;2023-02-28T05:47:13;-2.40;99.90
12700;DHT22;6414;49.570;6.060;2023-02-28T05:49:58;-2.50;99.90
12700;DHT22;6414;49.570;6.060;2023-02-28T05:52:43;-2.40;99.90
12700;DHT22;6414;49.570;6.060;2023-02-28T05:55:28;-2.40;99.90
12700;DHT22;6414;49.570;6.060;2023-02-28T05:58:14;-2.40;99.90
12700;DHT22;6414;49.570;6.060;2023-02-28T06:00:59;-2.50;99.90
12700;DHT22;6414;49.570;6.060;2023-02-28T06:03:44;-2.40;99.90
12700;DHT22;6414;49.570;6.060;2023-02-28T06:06:30;-2.40;99.90
12700;DHT22;6414;49.570;6.060;2023-02-28T06:09:15;-2.30;99.90
12700;DHT22;6414;49.570;6.060;2023-02-28T06:12:00;-2.50;99.90
12700;DHT22;6414;49.570;6.060;2023-02-28T06:14:45;-2.50;99.90
12700;DHT22;6414;49.570;6.060;2023-02-28T06:17:31;-2.40;99.90
12700;DHT22;6414;49.570;6.060;2023-02-28T06:20:16;-2.40;99.90
12700;DHT22;6414;49.570;6.060;2023-02-28T06:23:01;-2.50;99.90
12700;DHT22;6414;49.570;6.060;2023-02-28T06:25:47;-2.50;99.90
12700;DHT22;6414;49.570;6.060;2023-02-28T06:28:32;-2.60;99.90
12700;DHT22;6414;49.570;6.060;2023-02-28T06:31:17;-2.60;99.90
12700;DHT22;6414;49.570;6.060;2023-02-28T06:34:03;-2.60;99.90
12700;DHT22;6414;49.570;6.060;2023-02-28T06:36:49;-2.60;99.90
12700;DHT22;6414;49.570;6.060;2023-02-28T06:39:34;-2.60;99.90
12700;DHT22;6414;49.570;6.060;2023-02-28T06:42:18;-2.60;99.90
12700;DHT22;6414;49.570;6.060;2023-02-28T06:45:04;-2.60;99.90
12700;DHT22;6414;49.570;6.060;2023-02-28T06:47:49;-2.50;99.90
12700;DHT22;6414;49.570;6.060;2023-02-28T06:50:34;-2.30;99.90
12700;DHT22;6414;49.570;6.060;2023-02-28T06:53:20;-2.30;99.90
12700;DHT22;6414;49.570;6.060;2023-02-28T06:56:09;-2.40;99.90
12700;DHT22;6414;49.570;6.060;2023-02-28T06:58:52;-2.40;99.90
12700;DHT22;6414;49.570;6.060;2023-02-28T07:01:40;-2.40;99.90
12700;DHT22;6414;49.570;6.060;2023-02-28T07:04:26;-2.40;99.90
12700;DHT22;6414;49.570;6.060;2023-02-28T07:07:11;-2.40;99.90
12700;DHT22;6414;49.570;6.060;2023-02-28T07:09:57;-2.40;99.90
12700;DHT22;6414;49.570;6.060;2023-02-28T07:12:43;-2.40;99.90
12700;DHT22;6414;49.570;6.060;2023-02-28T07:15:28;-2.20;99.90
12700;DHT22;6414;49.570;6.060;2023-02-28T07:18:13;-2.20;99.90
12700;DHT22;6414;49.570;6.060;2023-02-28T07:21:04;-2.30;99.90
12700;DHT22;6414;49.570;6.060;2023-02-28T07:23:46;-2.30;99.90
12700;DHT22;6414;49.570;6.060;2023-02-28T07:26:31;-2.20;99.90
12700;DHT22;6414;49.570;6.060;2023-02-28T07:29:17;-2.20;99.90
12700;DHT22;6414;49.570;6.060;2023-02-28T07:32:02;-2.00;99.90
12700;DHT22;6414;49.570;6.060;2023-02-28T07:34:48;-2.00;99.90
12700;DHT22;6414;49.570;6.060;2023-02-28T07:37:33;-2.00;99.90
12700;DHT22;6414;49.570;6.060;2023-02-28T07:40:19;-1.80;99.90
12700;DHT22;6414;49.570;6.060;2023-02-28T07:43:05;-1.80;99.90
12700;DHT22;6414;49.570;6.060;2023-02-28T07:45:51;-1.80;99.90
12700;DHT22;6414;49.570;6.060;2023-02-28T07:48:37;-1.80;99.90
12700;DHT22;6414;49.570;6.060;2023-02-28T07:51:23;-1.80;99.90
12700;DHT22;6414;49.570;6.060;2023-02-28T07:54:08;-1.70;99.90
12700;DHT22;6414;49.570;6.060;2023-02-28T07:56:53;-1.60;99.90
12700;DHT22;6414;49.570;6.060;2023-02-28T07:59:39;-1.70;99.90
12700;DHT22;6414;49.570;6.060;2023-02-28T08:02:25;-1.50;99.90
12700;DHT22;6414;49.570;6.060;2023-02-28T08:05:11;-1.40;99.90
12700;DHT22;6414;49.570;6.060;2023-02-28T08:07:57;-1.40;99.90
12700;DHT22;6414;49.570;6.060;2023-02-28T08:10:43;-1.20;99.90
12700;DHT22;6414;49.570;6.060;2023-02-28T08:13:29;-1.20;99.90
12700;DHT22;6414;49.570;6.060;2023-02-28T08:16:15;-1.20;99.90
12700;DHT22;6414;49.570;6.060;2023-02-28T08:19:00;-0.90;99.90
12700;DHT22;6414;49.570;6.060;2023-02-28T08:21:46;-1.10;99.90
12700;DHT22;6414;49.570;6.060;2023-02-28T08:24:33;-1.20;99.90
12700;DHT22;6414;49.570;6.060;2023-02-28T08:27:19;-1.20;99.90
12700;DHT22;6414;49.570;6.060;2023-02-28T08:30:04;-0.80;94.40
12700;DHT22;6414;49.570;6.060;2023-02-28T08:32:50;-0.80;32.80
12700;DHT22;6414;49.570;6.060;2023-02-28T08:35:36;-0.80;27.40
12700;DHT22;6414;49.570;6.060;2023-02-28T08:38:22;-0.40;1.00
12700;DHT22;6414;49.570;6.060;2023-02-28T08:41:09;-0.70;1.00
12700;DHT22;6414;49.570;6.060;2023-02-28T08:43:53;-0.80;1.00
12700;DHT22;6414;49.570;6.060;2023-02-28T08:46:38;-0.50;1.00
12700;DHT22;6414;49.570;6.060;2023-02-28T08:49:24;-0.50;1.00
12700;DHT22;6414;49.570;6.060;2023-02-28T08:52:09;-0.30;1.00
12700;DHT22;6414;49.570;6.060;2023-02-28T08:54:54;-0.30;1.00
12700;DHT22;6414;49.570;6.060;2023-02-28T08:57:39;0.00;1.00
12700;DHT22;6414;49.570;6.060;2023-02-28T09:00:24;-0.30;99.90
12700;DHT22;6414;49.570;6.060;2023-02-28T09:03:09;-0.10;99.90
12700;DHT22;6414;49.570;6.060;2023-02-28T09:05:58;0.10;99.90
12700;DHT22;6414;49.570;6.060;2023-02-28T09:08:43;0.10;99.90
12700;DHT22;6414;49.570;6.060;2023-02-28T09:11:28;0.40;1.00
12700;DHT22;6414;49.570;6.060;2023-02-28T09:14:13;0.50;1.00
12700;DHT22;6414;49.570;6.060;2023-02-28T09:16:58;0.40;1.00
12700;DHT22;6414;49.570;6.060;2023-02-28T09:19:44;0.10;1.00
12700;DHT22;6414;49.570;6.060;2023-02-28T09:22:29;0.30;1.00
12700;DHT22;6414;49.570;6.060;2023-02-28T09:25:14;0.70;99.90
12700;DHT22;6414;49.570;6.060;2023-02-28T09:27:59;0.80;99.90
12700;DHT22;6414;49.570;6.060;2023-02-28T09:30:44;1.80;99.90
12700;DHT22;6414;49.570;6.060;2023-02-28T09:33:31;4.50;99.90
12700;DHT22;6414;49.570;6.060;2023-02-28T09:36:17;4.20;35.40
12700;DHT22;6414;49.570;6.060;2023-02-28T09:39:03;3.60;99.90
12700;DHT22;6414;49.570;6.060;2023-02-28T09:41:52;3.60;99.90
12700;DHT22;6414;49.570;6.060;2023-02-28T09:44:42;3.80;1.00
12700;DHT22;6414;49.570;6.060;2023-02-28T09:47:34;3.80;1.00
12700;DHT22;6414;49.570;6.060;2023-02-28T09:50:22;3.90;1.00
12700;DHT22;6414;49.570;6.060;2023-02-28T09:53:04;3.60;1.00
12700;DHT22;6414;49.570;6.060;2023-02-28T09:55:49;2.90;1.00
12700;DHT22;6414;49.570;6.060;2023-02-28T09:58:52;3.70;1.00
12700;DHT22;6414;49.570;6.060;2023-02-28T10:01:43;4.20;1.00
12700;DHT22;6414;49.570;6.060;2023-02-28T10:10:27;3.90;1.00
12700;DHT22;6414;49.570;6.060;2023-02-28T10:13:24;3.20;1.00
12700;DHT22;6414;49.570;6.060;2023-02-28T10:16:14;2.80;1.00
12700;DHT22;6414;49.570;6.060;2023-02-28T10:19:06;2.70;1.00
12700;DHT22;6414;49.570;6.060;2023-02-28T10:22:02;2.30;1.00
12700;DHT22;6414;49.570;6.060;2023-02-28T10:24:48;1.80;1.00
12700;DHT22;6414;49.570;6.060;2023-02-28T10:27:32;1.20;93.20
12700;DHT22;6414;49.570;6.060;2023-02-28T10:30:17;1.60;92.50
12700;DHT22;6414;49.570;6.060;2023-02-28T10:33:02;1.60;99.90
12700;DHT22;6414;49.570;6.060;2023-02-28T10:35:48;1.90;99.90
12700;DHT22;6414;49.570;6.060;2023-02-28T10:38:36;2.00;99.90
12700;DHT22;6414;49.570;6.060;2023-02-28T10:41:32;1.80;99.90
12700;DHT22;6414;49.570;6.060;2023-02-28T10:44:23;1.70;99.60
12700;DHT22;6414;49.570;6.060;2023-02-28T10:47:13;1.60;99.90
12700;DHT22;6414;49.570;6.060;2023-02-28T10:49:53;1.90;99.90
12700;DHT22;6414;49.570;6.060;2023-02-28T10:52:39;2.10;99.90
12700;DHT22;6414;49.570;6.060;2023-02-28T10:55:24;1.50;99.90
12700;DHT22;6414;49.570;6.060;2023-02-28T10:58:22;1.60;99.90
12700;DHT22;6414;49.570;6.060;2023-02-28T11:01:03;1.70;99.90
12700;DHT22;6414;49.570;6.060;2023-02-28T11:03:48;1.30;99.90
12700;DHT22;6414;49.570;6.060;2023-02-28T11:06:33;1.70;99.90
12700;DHT22;6414;49.570;6.060;2023-02-28T11:09:26;1.60;99.90
12700;DHT22;6414;49.570;6.060;2023-02-28T11:12:08;1.60;99.90
12700;DHT22;6414;49.570;6.060;2023-02-28T11:15:03;1.50;99.90
12700;DHT22;6414;49.570;6.060;2023-02-28T11:17:44;1.50;99.90
12700;DHT22;6414;49.570;6.060;2023-02-28T11:20:30;1.70;99.90
12700;DHT22;6414;49.570;6.060;2023-02-28T11:23:15;1.70;99.90
12700;DHT22;6414;49.570;6.060;2023-02-28T11:26:02;1.60;99.90
12700;DHT22;6414;49.570;6.060;2023-02-28T11:28:46;1.60;99.90
12700;DHT22;6414;49.570;6.060;2023-02-28T11:31:32;1.60;99.90
12700;DHT22;6414;49.570;6.060;2023-02-28T11:34:25;1.70;99.90
12700;DHT22;6414;49.570;6.060;2023-02-28T11:37:15;1.90;99.90
12700;DHT22;6414;49.570;6.060;2023-02-28T11:39:57;1.90;99.90
12700;DHT22;6414;49.570;6.060;2023-02-28T11:46:04;2.00;84.00
12700;DHT22;6414;49.570;6.060;2023-02-28T11:49:00;2.00;82.60
12700;DHT22;6414;49.570;6.060;2023-02-28T11:51:58;2.10;52.60
12700;DHT22;6414;49.570;6.060;2023-02-28T11:54:54;2.10;52.20
12700;DHT22;6414;49.570;6.060;2023-02-28T11:57:55;2.30;58.00
12700;DHT22;6414;49.570;6.060;2023-02-28T12:00:45;2.30;72.10
12700;DHT22;6414;49.570;6.060;2023-02-28T12:03:45;2.30;56.00
12700;DHT22;6414;49.570;6.060;2023-02-28T12:07:03;2.80;1.00
12700;DHT22;6414;49.570;6.060;2023-02-28T12:09:47;2.80;1.00
12700;DHT22;6414;49.570;6.060;2023-02-28T12:12:38;2.40;1.00
12700;DHT22;6414;49.570;6.060;2023-02-28T12:15:24;2.40;1.00
12700;DHT22;6414;49.570;6.060;2023-02-28T12:24:26;2.80;1.00
12700;DHT22;6414;49.570;6.060;2023-02-28T12:27:09;2.90;1.00
12700;DHT22;6414;49.570;6.060;2023-02-28T12:30:02;3.00;1.00
12700;DHT22;6414;49.570;6.060;2023-02-28T12:32:44;2.80;1.00
12700;DHT22;6414;49.570;6.060;2023-02-28T12:35:33;2.60;1.00
12700;DHT22;6414;49.570;6.060;2023-02-28T12:39:01;2.90;1.00
12700;DHT22;6414;49.570;6.060;2023-02-28T12:41:12;2.80;1.00
12700;DHT22;6414;49.570;6.060;2023-02-28T12:44:07;2.60;1.00
12700;DHT22;6414;49.570;6.060;2023-02-28T12:46:50;2.80;1.00
12700;DHT22;6414;49.570;6.060;2023-02-28T12:49:37;2.60;1.00
12700;DHT22;6414;49.570;6.060;2023-02-28T12:52:22;2.60;1.00
12700;DHT22;6414;49.570;6.060;2023-02-28T12:55:12;2.90;1.00
12700;DHT22;6414;49.570;6.060;2023-02-28T12:57:58;2.90;1.00
12700;DHT22;6414;49.570;6.060;2023-02-28T13:00:43;2.90;1.00
12700;DHT22;6414;49.570;6.060;2023-02-28T13:03:33;2.70;1.00
12700;DHT22;6414;49.570;6.060;2023-02-28T13:09:18;2.60;1.00
12700;DHT22;6414;49.570;6.060;2023-02-28T13:12:05;2.60;1.00
12700;DHT22;6414;49.570;6.060;2023-02-28T13:14:48;2.60;1.00
12700;DHT22;6414;49.570;6.060;2023-02-28T13:17:33;2.70;1.00
12700;DHT22;6414;49.570;6.060;2023-02-28T13:20:29;2.50;1.00
12700;DHT22;6414;49.570;6.060;2023-02-28T13:23:39;2.50;1.00
12700;DHT22;6414;49.570;6.060;2023-02-28T13:26:18;2.60;1.00
12700;DHT22;6414;49.570;6.060;2023-02-28T13:37:47;2.60;1.00
12700;DHT22;6414;49.570;6.060;2023-02-28T13:40:29;2.40;1.00
12700;DHT22;6414;49.570;6.060;2023-02-28T13:43:13;2.60;1.00
12700;DHT22;6414;49.570;6.060;2023-02-28T13:46:11;2.60;1.00
12700;DHT22;6414;49.570;6.060;2023-02-28T13:48:56;2.60;1.00
12700;DHT22;6414;49.570;6.060;2023-02-28T13:51:47;2.40;1.00
12700;DHT22;6414;49.570;6.060;2023-02-28T13:54:52;2.50;1.00
12700;DHT22;6414;49.570;6.060;2023-02-28T14:01:12;3.10;1.00
12700;DHT22;6414;49.570;6.060;2023-02-28T14:07:22;3.00;1.00
12700;DHT22;6414;49.570;6.060;2023-02-28T14:10:06;3.10;1.00
12700;DHT22;6414;49.570;6.060;2023-02-28T14:13:14;3.40;1.00
12700;DHT22;6414;49.570;6.060;2023-02-28T14:16:06;3.30;1.00
12700;DHT22;6414;49.570;6.060;2023-02-28T14:18:58;2.90;1.00
12700;DHT22;6414;49.570;6.060;2023-02-28T14:21:49;3.00;1.00
12700;DHT22;6414;49.570;6.060;2023-02-28T14:27:48;3.00;1.00
12700;DHT22;6414;49.570;6.060;2023-02-28T14:30:46;3.20;1.00
12700;DHT22;6414;49.570;6.060;2023-02-28T14:33:48;3.10;1.00
12700;DHT22;6414;49.570;6.060;2023-02-28T14:36:38;3.30;1.00
12700;DHT22;6414;49.570;6.060;2023-02-28T14:39:22;3.30;1.00
12700;DHT22;6414;49.570;6.060;2023-02-28T14:42:25;3.20;1.00
12700;DHT22;6414;49.570;6.060;2023-02-28T14:44:56;3.30;1.00
12700;DHT22;6414;49.570;6.060;2023-02-28T14:47:41;3.40;1.00
12700;DHT22;6414;49.570;6.060;2023-02-28T14:50:35;3.30;1.00
12700;DHT22;6414;49.570;6.060;2023-02-28T14:53:20;3.30;1.00
12700;DHT22;6414;49.570;6.060;2023-02-28T14:56:04;3.30;1.00
12700;DHT22;6414;49.570;6.060;2023-02-28T14:58:53;3.30;1.00
12700;DHT22;6414;49.570;6.060;2023-02-28T15:01:38;3.40;1.00
12700;DHT22;6414;49.570;6.060;2023-02-28T15:04:25;3.40;1.00
12700;DHT22;6414;49.570;6.060;2023-02-28T15:07:12;3.40;1.00
12700;DHT22;6414;49.570;6.060;2023-02-28T15:10:09;3.40;1.00
12700;DHT22;6414;49.570;6.060;2023-02-28T15:12:57;3.30;1.00
12700;DHT22;6414;49.570;6.060;2023-02-28T15:18:54;3.40;1.00
12700;DHT22;6414;49.570;6.060;2023-02-28T15:21:40;3.40;1.00
12700;DHT22;6414;49.570;6.060;2023-02-28T15:24:41;3.50;1.00
12700;DHT22;6414;49.570;6.060;2023-02-28T15:27:27;3.40;1.00
12700;DHT22;6414;49.570;6.060;2023-02-28T15:30:16;3.50;1.00
12700;DHT22;6414;49.570;6.060;2023-02-28T15:36:06;3.40;1.00
12700;DHT22;6414;49.570;6.060;2023-02-28T15:38:51;3.30;1.00
12700;DHT22;6414;49.570;6.060;2023-02-28T15:41:36;3.30;1.00
12700;DHT22;6414;49.570;6.060;2023-02-28T15:44:24;3.40;1.00
12700;DHT22;6414;49.570;6.060;2023-02-28T15:50:03;3.30;1.00
12700;DHT22;6414;49.570;6.060;2023-02-28T15:52:48;3.40;1.00
12700;DHT22;6414;49.570;6.060;2023-02-28T15:55:33;3.40;1.00
12700;DHT22;6414;49.570;6.060;2023-02-28T15:58:19;3.30;1.00
12700;DHT22;6414;49.570;6.060;2023-02-28T16:01:16;3.40;1.00
12700;DHT22;6414;49.570;6.060;2023-02-28T16:03:53;3.40;1.00
12700;DHT22;6414;49.570;6.060;2023-02-28T16:06:42;3.30;1.00
12700;DHT22;6414;49.570;6.060;2023-02-28T16:09:26;3.30;1.00
12700;DHT22;6414;49.570;6.060;2023-02-28T16:12:13;3.30;1.00
12700;DHT22;6414;49.570;6.060;2023-02-28T16:15:00;3.30;1.00
12700;DHT22;6414;49.570;6.060;2023-02-28T16:17:44;3.30;1.00
12700;DHT22;6414;49.570;6.060;2023-02-28T16:20:30;3.20;1.00
12700;DHT22;6414;49.570;6.060;2023-02-28T16:23:15;3.20;1.00
12700;DHT22;6414;49.570;6.060;2023-02-28T16:26:02;3.20;1.00
12700;DHT22;6414;49.570;6.060;2023-02-28T16:28:47;3.20;1.00
12700;DHT22;6414;49.570;6.060;2023-02-28T16:31:37;3.10;1.00
12700;DHT22;6414;49.570;6.060;2023-02-28T16:34:21;3.10;1.00
12700;DHT22;6414;49.570;6.060;2023-02-28T16:37:17;3.10;1.00
12700;DHT22;6414;49.570;6.060;2023-02-28T16:40:02;3.10;1.00
12700;DHT22;6414;49.570;6.060;2023-02-28T16:42:51;3.10;1.00
12700;DHT22;6414;49.570;6.060;2023-02-28T16:45:33;3.00;1.00
12700;DHT22;6414;49.570;6.060;2023-02-28T16:48:18;3.00;1.00
12700;DHT22;6414;49.570;6.060;2023-02-28T16:51:04;3.00;1.00
12700;DHT22;6414;49.570;6.060;2023-02-28T16:53:50;2.90;1.00
12700;DHT22;6414;49.570;6.060;2023-02-28T16:56:36;2.80;1.00
12700;DHT22;6414;49.570;6.060;2023-02-28T16:59:24;2.80;1.00
12700;DHT22;6414;49.570;6.060;2023-02-28T17:02:14;2.80;1.00
12700;DHT22;6414;49.570;6.060;2023-02-28T17:04:58;2.80;1.00
12700;DHT22;6414;49.570;6.060;2023-02-28T17:07:44;2.70;1.00
12700;DHT22;6414;49.570;6.060;2023-02-28T17:10:29;2.70;1.00
12700;DHT22;6414;49.570;6.060;2023-02-28T17:13:16;2.60;1.00
12700;DHT22;6414;49.570;6.060;2023-02-28T17:16:02;2.60;1.00
12700;DHT22;6414;49.570;6.060;2023-02-28T17:18:47;2.60;1.00
12700;DHT22;6414;49.570;6.060;2023-02-28T17:21:33;2.50;1.00
12700;DHT22;6414;49.570;6.060;2023-02-28T17:24:19;2.50;1.00
12700;DHT22;6414;49.570;6.060;2023-02-28T17:27:05;2.40;1.00
12700;DHT22;6414;49.570;6.060;2023-02-28T17:29:50;2.30;1.00
12700;DHT22;6414;49.570;6.060;2023-02-28T17:32:35;2.30;1.00
12700;DHT22;6414;49.570;6.060;2023-02-28T17:35:20;2.30;1.00
12700;DHT22;6414;49.570;6.060;2023-02-28T17:38:11;2.20;1.00
12700;DHT22;6414;49.570;6.060;2023-02-28T17:40:51;2.20;1.00
12700;DHT22;6414;49.570;6.060;2023-02-28T17:43:38;2.10;1.00
12700;DHT22;6414;49.570;6.060;2023-02-28T17:46:24;2.10;1.00
12700;DHT22;6414;49.570;6.060;2023-02-28T17:49:09;2.00;1.00
12700;DHT22;6414;49.570;6.060;2023-02-28T17:51:55;1.80;6.60
12700;DHT22;6414;49.570;6.060;2023-02-28T17:54:41;1.80;2.90
12700;DHT22;6414;49.570;6.060;2023-02-28T17:57:28;1.80;17.80
12700;DHT22;6414;49.570;6.060;2023-02-28T18:00:15;1.70;25.90
12700;DHT22;6414;49.570;6.060;2023-02-28T18:02:59;1.70;26.00
12700;DHT22;6414;49.570;6.060;2023-02-28T18:05:44;1.80;23.30
12700;DHT22;6414;49.570;6.060;2023-02-28T18:08:30;1.70;16.40
12700;DHT22;6414;49.570;6.060;2023-02-28T18:11:15;1.80;17.80
12700;DHT22;6414;49.570;6.060;2023-02-28T18:14:03;1.80;15.90
12700;DHT22;6414;49.570;6.060;2023-02-28T18:16:48;1.70;36.30
12700;DHT22;6414;49.570;6.060;2023-02-28T18:19:34;1.70;25.20
12700;DHT22;6414;49.570;6.060;2023-02-28T18:22:19;1.70;38.40
12700;DHT22;6414;49.570;6.060;2023-02-28T18:25:05;1.70;58.10
12700;DHT22;6414;49.570;6.060;2023-02-28T18:27:50;1.50;67.30
12700;DHT22;6414;49.570;6.060;2023-02-28T18:30:37;1.40;97.90
12700;DHT22;6414;49.570;6.060;2023-02-28T18:33:23;1.30;99.90
12700;DHT22;6414;49.570;6.060;2023-02-28T18:36:08;1.20;99.90
12700;DHT22;6414;49.570;6.060;2023-02-28T18:38:53;1.30;99.90
12700;DHT22;6414;49.570;6.060;2023-02-28T18:41:39;1.20;99.90
12700;DHT22;6414;49.570;6.060;2023-02-28T18:44:24;1.30;99.90
12700;DHT22;6414;49.570;6.060;2023-02-28T18:47:10;1.30;99.90
12700;DHT22;6414;49.570;6.060;2023-02-28T18:49:57;1.30;99.90
12700;DHT22;6414;49.570;6.060;2023-02-28T18:52:42;1.30;99.90
12700;DHT22;6414;49.570;6.060;2023-02-28T18:55:28;1.30;99.90
12700;DHT22;6414;49.570;6.060;2023-02-28T18:58:14;1.30;99.90
12700;DHT22;6414;49.570;6.060;2023-02-28T19:00:59;1.30;99.90
12700;DHT22;6414;49.570;6.060;2023-02-28T19:03:45;1.30;99.90
12700;DHT22;6414;49.570;6.060;2023-02-28T19:06:31;1.30;99.90
12700;DHT22;6414;49.570;6.060;2023-02-28T19:09:17;1.20;99.90